createdAt,value
2018-05-17T00:02:13.707Z,10.17
2018-05-17T00:04:39.896Z,11.57
2018-05-17T00:07:06.892Z,10.13
2018-05-17T00:09:33.198Z,10.93
2018-05-17T00:11:59.404Z,11.40
2018-05-17T00:14:25.563Z,11.33
2018-05-17T00:16:51.777Z,10.10
2018-05-17T00:19:17.942Z,11.10
2018-05-17T00:21:44.114Z,10.70
2018-05-17T00:24:11.076Z,10.33
2018-05-17T00:26:37.321Z,10.27
2018-05-17T00:29:03.592Z,9.57
2018-05-17T00:31:29.774Z,10.17
2018-05-17T00:33:55.962Z,8.87
2018-05-17T00:36:22.944Z,8.77
2018-05-17T00:38:49.132Z,9.83
2018-05-17T00:41:16.098Z,8.13
2018-05-17T00:43:42.326Z,8.97
2018-05-17T00:46:08.514Z,7.90
2018-05-17T00:48:34.721Z,8.33
2018-05-17T00:51:00.931Z,8.37
2018-05-17T00:53:30.018Z,7.73
2018-05-17T00:55:56.222Z,8.30
2018-05-17T00:58:23.177Z,9.37
2018-05-17T01:00:49.320Z,9.03
2018-05-17T01:03:15.512Z,8.87
2018-05-17T01:05:42.493Z,8.43
2018-05-17T01:08:08.720Z,8.60
2018-05-17T01:10:34.914Z,8.83
2018-05-17T01:13:01.845Z,8.70
2018-05-17T01:15:28.051Z,8.10
2018-05-17T01:17:54.292Z,8.70
2018-05-17T01:20:20.513Z,9.47
2018-05-17T01:22:46.736Z,8.10
2018-05-17T01:25:12.884Z,9.87
2018-05-17T01:27:39.083Z,9.07
2018-05-17T01:30:05.276Z,8.10
2018-05-17T01:32:31.458Z,8.70
2018-05-17T01:34:57.756Z,8.13
2018-05-17T01:37:36.464Z,8.60
2018-05-17T01:40:02.672Z,8.87
2018-05-17T01:42:29.633Z,8.50
2018-05-17T01:44:55.828Z,8.90
2018-05-17T01:47:21.977Z,9.20
2018-05-17T01:49:48.135Z,9.17
2018-05-17T01:52:14.353Z,9.70
2018-05-17T01:54:40.567Z,8.60
2018-05-17T01:57:06.798Z,9.60
2018-05-17T01:59:32.990Z,9.03
2018-05-17T02:01:59.168Z,8.80
2018-05-17T02:04:25.405Z,10.07
2018-05-17T02:06:51.569Z,8.93
2018-05-17T02:09:17.795Z,8.70
2018-05-17T02:11:44.041Z,9.93
2018-05-17T02:14:11.023Z,8.77
2018-05-17T02:16:37.261Z,9.47
2018-05-17T02:19:03.472Z,10.57
2018-05-17T02:21:29.611Z,10.67
2018-05-17T02:23:55.776Z,10.00
2018-05-17T02:26:21.962Z,10.53
2018-05-17T02:28:48.174Z,10.17
2018-05-17T02:31:14.337Z,10.20
2018-05-17T02:33:40.506Z,11.43
2018-05-17T02:36:07.408Z,10.30
2018-05-17T02:38:33.531Z,10.10
2018-05-17T02:40:59.719Z,10.47
2018-05-17T02:43:25.919Z,9.80
2018-05-17T02:45:52.076Z,11.17
2018-05-17T02:48:18.266Z,10.37
2018-05-17T02:50:44.409Z,9.97
2018-05-17T02:53:11.317Z,10.33
2018-05-17T02:55:37.437Z,10.20
2018-05-17T02:58:03.585Z,10.77
2018-05-17T03:00:29.742Z,10.50
2018-05-17T03:02:56.657Z,11.53
2018-05-17T03:05:22.860Z,11.60
2018-05-17T03:07:49.090Z,12.30
2018-05-17T03:10:15.310Z,11.20
2018-05-17T03:12:41.549Z,11.60
2018-05-17T03:15:07.670Z,10.40
2018-05-17T03:17:33.902Z,12.23
2018-05-17T03:20:00.109Z,12.10
2018-05-17T03:22:26.310Z,14.70
2018-05-17T03:24:53.281Z,13.07
2018-05-17T03:27:19.504Z,14.90
2018-05-17T03:29:45.669Z,14.20
2018-05-17T03:32:11.862Z,15.30
2018-05-17T03:34:38.081Z,15.80
2018-05-17T03:37:04.288Z,17.40
2018-05-17T03:39:31.234Z,18.77
2018-05-17T03:41:58.172Z,17.97
2018-05-17T03:44:25.079Z,18.80
2018-05-17T03:46:51.318Z,18.43
2018-05-17T03:49:17.525Z,20.63
2018-05-17T03:51:43.703Z,18.83
2018-05-17T03:54:10.562Z,19.23
2018-05-17T03:56:36.748Z,19.90
2018-05-17T03:59:02.919Z,19.70
2018-05-17T04:01:42.185Z,20.50
2018-05-17T04:04:20.617Z,20.17
2018-05-17T04:06:46.830Z,20.93
2018-05-17T04:09:12.963Z,20.83
2018-05-17T04:11:39.209Z,19.17
2018-05-17T04:14:05.429Z,21.73
2018-05-17T04:16:31.578Z,21.20
2018-05-17T04:18:57.801Z,19.20
2018-05-17T04:21:24.031Z,21.60
2018-05-17T04:23:50.939Z,21.23
2018-05-17T04:26:17.149Z,21.17
2018-05-17T04:28:43.344Z,22.37
2018-05-17T04:31:10.267Z,22.13
2018-05-17T04:33:36.480Z,23.60
2018-05-17T04:36:03.519Z,23.93
2018-05-17T04:38:29.819Z,23.80
2018-05-17T04:40:56.041Z,25.00
2018-05-17T04:43:22.191Z,22.27
2018-05-17T04:45:48.372Z,23.97
2018-05-17T04:48:15.322Z,24.47
2018-05-17T04:50:42.259Z,24.00
2018-05-17T04:53:08.389Z,24.33
2018-05-17T04:55:35.342Z,23.90
2018-05-17T04:58:02.326Z,25.57
2018-05-17T05:00:28.518Z,23.47
2018-05-17T05:02:55.523Z,24.50
2018-05-17T05:05:22.416Z,25.77
2018-05-17T05:07:48.591Z,25.37
2018-05-17T05:10:14.749Z,23.50
2018-05-17T05:12:40.935Z,23.47
2018-05-17T05:15:07.122Z,26.80
2018-05-17T05:17:34.066Z,24.23
2018-05-17T05:20:01.031Z,25.20
2018-05-17T05:22:27.257Z,26.27
2018-05-17T05:24:53.435Z,27.43
2018-05-17T05:27:19.619Z,24.87
2018-05-17T05:29:45.817Z,26.07
2018-05-17T05:32:12.747Z,25.30
2018-05-17T05:34:38.974Z,25.73
2018-05-17T05:37:05.184Z,23.93
2018-05-17T05:39:32.076Z,25.50
2018-05-17T05:41:58.254Z,25.30
2018-05-17T05:44:24.425Z,25.27
2018-05-17T05:46:51.359Z,25.80
2018-05-17T05:49:18.339Z,27.70
2018-05-17T05:51:44.573Z,26.20
2018-05-17T05:54:10.725Z,26.63
2018-05-17T05:56:36.933Z,26.50
2018-05-17T05:59:03.174Z,25.97
2018-05-17T06:01:29.353Z,25.60
2018-05-17T06:03:56.344Z,28.57
2018-05-17T06:06:22.538Z,26.73
2018-05-17T06:08:48.924Z,25.80
2018-05-17T06:11:15.062Z,28.17
2018-05-17T06:13:42.029Z,26.40
2018-05-17T06:16:08.255Z,27.97
2018-05-17T06:18:34.437Z,26.97
2018-05-17T06:21:00.625Z,27.87
2018-05-17T06:23:26.800Z,26.80
2018-05-17T06:25:53.016Z,28.23
2018-05-17T06:28:19.227Z,28.17
2018-05-17T06:30:45.459Z,27.37
2018-05-17T06:33:11.670Z,28.00
2018-05-17T06:35:37.959Z,27.60
2018-05-17T06:38:04.950Z,27.67
2018-05-17T06:40:31.109Z,27.70
2018-05-17T06:42:57.301Z,27.10
2018-05-17T06:45:23.536Z,28.47
2018-05-17T06:47:49.769Z,29.80
2018-05-17T06:50:15.997Z,27.30
2018-05-17T06:52:42.187Z,28.10
2018-05-17T06:55:09.081Z,28.07
2018-05-17T06:57:35.247Z,28.07
2018-05-17T07:00:01.425Z,30.83
2018-05-17T07:02:27.631Z,28.30
2018-05-17T07:04:53.829Z,28.53
2018-05-17T07:07:20.010Z,28.47
2018-05-17T07:09:46.246Z,27.00
2018-05-17T07:12:12.505Z,30.10
2018-05-17T07:14:38.699Z,28.90
2018-05-17T07:17:04.890Z,29.43
2018-05-17T07:19:31.852Z,27.07
2018-05-17T07:21:58.033Z,27.27
2018-05-17T07:24:24.211Z,28.73
2018-05-17T07:26:50.368Z,26.83
2018-05-17T07:29:16.597Z,27.80
2018-05-17T07:31:42.835Z,27.97
2018-05-17T07:34:09.040Z,28.60
2018-05-17T07:36:35.195Z,28.77
2018-05-17T07:39:01.387Z,29.30
2018-05-17T07:41:27.544Z,29.47
2018-05-17T07:43:53.759Z,27.90
2018-05-17T07:46:19.969Z,28.80
2018-05-17T07:48:46.165Z,28.97
2018-05-17T07:51:13.087Z,28.30
2018-05-17T07:53:39.268Z,30.67
2018-05-17T07:56:05.427Z,30.20
2018-05-17T07:58:31.657Z,28.33
2018-05-17T08:00:57.822Z,26.83
2018-05-17T08:03:24.810Z,29.97
2018-05-17T08:05:51.042Z,25.80
2018-05-17T08:08:17.198Z,26.57
2018-05-17T08:10:43.334Z,23.80
2018-05-17T08:13:10.313Z,23.60
2018-05-17T08:15:36.460Z,24.23
2018-05-17T08:18:02.652Z,25.43
2018-05-17T08:20:28.861Z,24.00
2018-05-17T08:22:55.839Z,22.43
2018-05-17T08:25:22.074Z,22.50
2018-05-17T08:27:48.320Z,23.00
2018-05-17T08:30:14.569Z,22.10
2018-05-17T08:32:40.858Z,21.93
2018-05-17T08:35:07.110Z,23.00
2018-05-17T08:37:34.115Z,20.23
2018-05-17T08:40:00.300Z,21.50
2018-05-17T08:42:26.590Z,18.77
2018-05-17T08:44:52.818Z,18.90
2018-05-17T08:47:19.045Z,19.83
2018-05-17T08:49:45.221Z,19.83
2018-05-17T08:52:11.472Z,17.73
2018-05-17T08:54:38.399Z,18.90
2018-05-17T08:57:04.595Z,19.65
2018-05-17T08:59:30.774Z,18.90
2018-05-17T09:01:57.660Z,20.27
2018-05-17T09:04:23.850Z,19.73
2018-05-17T09:06:50.745Z,20.27
2018-05-17T09:09:16.927Z,19.67
2018-05-17T09:11:50.126Z,20.23
2018-05-17T09:14:16.268Z,20.20
2018-05-17T09:16:42.495Z,20.47
2018-05-17T09:19:08.728Z,18.97
2018-05-17T09:21:34.886Z,20.00
2018-05-17T09:24:01.129Z,19.23
2018-05-17T09:26:28.047Z,20.07
2018-05-17T09:28:54.250Z,18.83
2018-05-17T09:31:20.448Z,21.90
2018-05-17T09:33:47.401Z,19.67
2018-05-17T09:36:13.617Z,17.77
2018-05-17T09:38:40.515Z,18.77
2018-05-17T09:41:06.742Z,19.60
2018-05-17T09:43:32.931Z,20.60
2018-05-17T09:45:59.830Z,19.57
2018-05-17T09:48:25.973Z,19.40
2018-05-17T09:50:52.909Z,19.30
2018-05-17T09:53:19.071Z,19.40
2018-05-17T09:55:46.030Z,19.80
2018-05-17T09:58:12.267Z,17.03
2018-05-17T10:00:42.459Z,17.43
2018-05-17T10:03:08.741Z,19.23
2018-05-17T10:05:34.900Z,17.50
2018-05-17T10:08:01.047Z,19.27
2018-05-17T10:10:27.948Z,18.87
2018-05-17T10:12:54.413Z,18.40
2018-05-17T10:15:21.312Z,18.10
2018-05-17T10:17:47.514Z,19.10
2018-05-17T10:20:13.758Z,18.33
2018-05-17T10:22:39.897Z,17.60
2018-05-17T10:25:06.096Z,17.70
2018-05-17T10:27:32.340Z,16.70
2018-05-17T10:29:58.558Z,17.73
2018-05-17T10:32:24.758Z,17.60
2018-05-17T10:34:51.713Z,16.53
2018-05-17T10:37:17.905Z,16.93
2018-05-17T10:39:44.080Z,17.87
2018-05-17T10:42:10.420Z,16.40
2018-05-17T10:44:36.570Z,15.80
2018-05-17T10:47:02.780Z,15.43
2018-05-17T10:49:29.010Z,14.93
2018-05-17T10:51:55.172Z,15.97
2018-05-17T10:54:21.334Z,15.10
2018-05-17T10:56:47.532Z,14.80
2018-05-17T10:59:13.734Z,15.60
2018-05-17T11:01:39.956Z,14.10
2018-05-17T11:04:06.159Z,15.27
2018-05-17T11:06:32.388Z,14.37
2018-05-17T11:08:58.640Z,14.77
2018-05-17T11:11:24.848Z,13.60
2018-05-17T11:13:51.049Z,14.13
2018-05-17T11:16:18.017Z,13.47
2018-05-17T11:18:44.188Z,11.87
2018-05-17T11:21:10.376Z,14.43
2018-05-17T11:23:36.590Z,12.67
2018-05-17T11:26:02.979Z,13.40
2018-05-17T11:28:30.700Z,13.20
2018-05-17T11:30:56.948Z,13.93
2018-05-17T11:33:23.277Z,13.27
2018-05-17T11:35:49.586Z,12.13
2018-05-17T11:38:15.784Z,12.90
2018-05-17T11:40:42.733Z,13.53
2018-05-17T11:43:09.654Z,12.10
2018-05-17T11:45:35.824Z,13.67
2018-05-17T11:48:02.036Z,11.47
2018-05-17T11:50:29.061Z,11.70
2018-05-17T11:52:55.208Z,10.67
2018-05-17T11:55:22.177Z,12.47
2018-05-17T11:57:48.323Z,11.70
2018-05-17T12:00:14.510Z,11.20
2018-05-17T12:02:41.411Z,12.80
2018-05-17T12:05:07.649Z,11.50
2018-05-17T12:07:33.802Z,11.43
2018-05-17T12:10:00.749Z,10.50
2018-05-17T12:12:27.741Z,11.30
2018-05-17T12:14:53.956Z,11.00
2018-05-17T12:17:20.140Z,10.30
2018-05-17T12:19:46.272Z,11.03
2018-05-17T12:22:13.212Z,10.47
2018-05-17T12:24:40.133Z,10.70
2018-05-17T12:27:06.307Z,10.80
2018-05-17T12:29:34.217Z,11.27
2018-05-17T12:32:00.461Z,10.40
2018-05-17T12:34:26.687Z,10.20
2018-05-17T12:36:52.927Z,11.23
2018-05-17T12:39:19.127Z,10.10
2018-05-17T12:41:45.421Z,10.50
2018-05-17T12:44:11.673Z,12.07
2018-05-17T12:46:37.887Z,10.40
2018-05-17T12:49:04.055Z,11.03
2018-05-17T12:51:30.229Z,11.70
2018-05-17T12:53:56.430Z,10.80
2018-05-17T12:56:22.653Z,9.60
2018-05-17T12:58:49.678Z,9.63
2018-05-17T13:01:16.553Z,10.67
2018-05-17T13:03:43.502Z,10.87
2018-05-17T13:06:10.448Z,9.40
2018-05-17T13:08:37.372Z,9.17
2018-05-17T13:11:03.638Z,9.53
2018-05-17T13:13:30.557Z,10.50
2018-05-17T13:15:56.777Z,11.23
2018-05-17T13:18:22.962Z,9.50
2018-05-17T13:20:49.140Z,9.40
2018-05-17T13:23:15.331Z,9.27
2018-05-17T13:25:41.746Z,8.53
2018-05-17T13:28:07.912Z,9.00
2018-05-17T13:30:34.087Z,9.80
2018-05-17T13:33:00.291Z,8.87
2018-05-17T13:35:27.222Z,8.30
2018-05-17T13:37:53.453Z,9.53
2018-05-17T13:40:20.341Z,10.97
2018-05-17T13:42:46.554Z,9.30
2018-05-17T13:45:12.727Z,8.03
2018-05-17T13:47:39.057Z,8.53
2018-05-17T13:50:05.265Z,7.47
2018-05-17T13:52:31.411Z,7.80
2018-05-17T13:54:57.596Z,7.90
2018-05-17T13:57:23.775Z,7.83
2018-05-17T13:59:49.998Z,6.77
2018-05-17T14:02:16.180Z,7.10
2018-05-17T14:04:43.199Z,7.23
2018-05-17T14:07:10.177Z,7.33
2018-05-17T14:09:36.399Z,6.57
2018-05-17T14:12:03.330Z,8.03
2018-05-17T14:14:30.270Z,7.60
2018-05-17T14:16:57.277Z,8.10
2018-05-17T14:19:23.472Z,7.20
2018-05-17T14:21:49.710Z,7.97
2018-05-17T14:24:15.917Z,7.20
2018-05-17T14:26:42.114Z,7.60
2018-05-17T14:29:08.293Z,6.40
2018-05-17T14:31:34.474Z,6.90
2018-05-17T14:34:00.681Z,8.77
2018-05-17T14:36:26.895Z,6.73
2018-05-17T14:38:53.092Z,6.50
2018-05-17T14:41:19.251Z,6.77
2018-05-17T14:43:45.423Z,12.13
2018-05-17T14:46:12.401Z,8.97
2018-05-17T14:48:38.569Z,8.13
2018-05-17T14:51:04.700Z,9.47
2018-05-17T14:53:30.968Z,8.80
2018-05-17T14:55:57.309Z,12.27
2018-05-17T14:58:23.491Z,12.00
2018-05-17T15:00:49.709Z,7.20
2018-05-17T15:03:15.927Z,7.97
2018-05-17T15:05:42.140Z,8.00
2018-05-17T15:08:08.341Z,7.03
2018-05-17T15:10:34.544Z,7.67
2018-05-17T15:13:01.484Z,8.30
2018-05-17T15:15:28.594Z,8.60
2018-05-17T15:17:54.882Z,7.77
2018-05-17T15:20:21.058Z,7.93
2018-05-17T15:22:47.240Z,7.70
2018-05-17T15:25:14.278Z,6.37
2018-05-17T15:27:41.327Z,8.13
2018-05-17T15:30:07.522Z,8.30
2018-05-17T15:32:33.756Z,8.17
2018-05-17T15:34:59.875Z,6.60
2018-05-17T15:37:26.050Z,6.13
2018-05-17T15:39:52.283Z,6.87
2018-05-17T15:42:18.538Z,6.87
2018-05-17T15:44:44.732Z,7.03
2018-05-17T15:47:10.945Z,6.83
2018-05-17T15:49:37.870Z,6.13
2018-05-17T15:52:04.044Z,5.50
2018-05-17T15:54:30.237Z,6.57
2018-05-17T15:56:57.175Z,5.70
2018-05-17T15:59:23.453Z,5.53
2018-05-17T16:01:49.585Z,6.57
2018-05-17T16:04:15.761Z,7.10
2018-05-17T16:06:42.707Z,5.83
2018-05-17T16:09:08.892Z,5.00
2018-05-17T16:11:35.047Z,5.40
2018-05-17T16:14:01.248Z,5.70
2018-05-17T16:16:27.433Z,4.80
2018-05-17T16:18:53.621Z,6.23
2018-05-17T16:21:19.823Z,6.27
2018-05-17T16:23:46.058Z,6.47
2018-05-17T16:26:12.267Z,6.03
2018-05-17T16:28:38.452Z,5.80
2018-05-17T16:31:04.711Z,5.77
2018-05-17T16:33:30.837Z,6.73
2018-05-17T16:35:57.025Z,5.30
2018-05-17T16:38:23.229Z,5.93
2018-05-17T16:40:49.500Z,4.40
2018-05-17T16:43:16.477Z,5.57
2018-05-17T16:45:42.730Z,5.87
2018-05-17T16:48:09.045Z,4.80
2018-05-17T16:50:35.135Z,5.80
2018-05-17T16:53:02.089Z,5.83
2018-05-17T16:55:28.268Z,6.80
2018-05-17T16:57:54.462Z,5.43
2018-05-17T17:00:20.644Z,5.00
2018-05-17T17:02:46.807Z,4.53
2018-05-17T17:05:13.014Z,4.63
2018-05-17T17:07:39.940Z,4.40
2018-05-17T17:10:06.131Z,4.67
2018-05-17T17:12:32.326Z,4.70
2018-05-17T17:14:58.607Z,5.07
2018-05-17T17:17:24.737Z,4.47
2018-05-17T17:19:50.982Z,4.23
2018-05-17T17:22:17.185Z,4.00
2018-05-17T17:24:43.331Z,3.70
2018-05-17T17:27:09.503Z,3.90
2018-05-17T17:29:35.767Z,4.77
2018-05-17T17:32:01.920Z,4.27
2018-05-17T17:34:28.122Z,4.30
2018-05-17T17:36:54.258Z,4.17
2018-05-17T17:39:20.459Z,3.40
2018-05-17T17:41:46.596Z,3.57
2018-05-17T17:44:12.721Z,2.93
2018-05-17T17:46:38.909Z,3.40
2018-05-17T17:49:05.846Z,4.00
2018-05-17T17:51:32.805Z,2.87
2018-05-17T17:53:59.048Z,3.47
2018-05-17T17:56:25.279Z,4.40
2018-05-17T17:58:51.486Z,3.90
2018-05-17T18:01:17.735Z,4.73
2018-05-17T18:03:43.933Z,4.00
2018-05-17T18:06:10.914Z,4.60
2018-05-17T18:08:37.092Z,4.47
2018-05-17T18:11:03.303Z,4.73
2018-05-17T18:13:29.574Z,4.63
2018-05-17T18:15:55.770Z,4.27
2018-05-17T18:18:21.998Z,3.83
2018-05-17T18:20:48.151Z,6.53
2018-05-17T18:23:15.051Z,5.47
2018-05-17T18:25:41.278Z,4.30
2018-05-17T18:28:07.429Z,3.57
2018-05-17T18:30:33.647Z,5.07
2018-05-17T18:32:59.867Z,4.40
2018-05-17T18:35:26.069Z,4.40
2018-05-17T18:37:52.252Z,5.00
2018-05-17T18:40:19.254Z,4.50
2018-05-17T18:42:45.510Z,3.70
2018-05-17T18:45:11.689Z,5.23
2018-05-17T18:47:37.836Z,4.43
2018-05-17T18:50:04.125Z,4.50
2018-05-17T18:52:30.342Z,4.43
2018-05-17T18:54:57.345Z,5.03
2018-05-17T18:57:23.552Z,4.03
2018-05-17T18:59:49.769Z,4.83
2018-05-17T19:02:16.070Z,4.40
2018-05-17T19:04:42.250Z,4.40
2018-05-17T19:07:08.451Z,5.40
2018-05-17T19:09:34.626Z,4.27
2018-05-17T19:12:00.810Z,4.77
2018-05-17T19:14:26.984Z,4.10
2018-05-17T19:16:53.186Z,4.10
2018-05-17T19:19:19.406Z,4.33
2018-05-17T19:21:45.575Z,4.63
2018-05-17T19:24:11.760Z,4.70
2018-05-17T19:26:37.928Z,3.60
2018-05-17T19:29:04.150Z,3.90
2018-05-17T19:31:30.357Z,4.60
2018-05-17T19:33:56.597Z,5.13
2018-05-17T19:36:22.830Z,5.43
2018-05-17T19:38:49.030Z,4.53
2018-05-17T19:41:15.253Z,4.80
2018-05-17T19:43:41.495Z,4.20
2018-05-17T19:46:07.805Z,4.47
2018-05-17T19:48:33.999Z,5.03
2018-05-17T19:51:00.887Z,4.80
2018-05-17T19:53:27.127Z,4.30
2018-05-17T19:55:53.326Z,4.97
2018-05-17T19:58:19.601Z,3.90
2018-05-17T20:00:45.865Z,5.80
2018-05-17T20:03:12.035Z,5.30
2018-05-17T20:05:38.276Z,4.40
2018-05-17T20:08:04.442Z,4.17
2018-05-17T20:10:31.356Z,5.07
2018-05-17T20:12:57.554Z,5.37
2018-05-17T20:15:23.715Z,4.93
2018-05-17T20:17:49.858Z,4.97
2018-05-17T20:20:15.966Z,5.13
2018-05-17T20:22:42.189Z,5.47
2018-05-17T20:25:08.665Z,4.77
2018-05-17T20:27:35.637Z,4.80
2018-05-17T20:30:01.833Z,4.37
2018-05-17T20:32:28.809Z,4.20
2018-05-17T20:34:54.994Z,4.57
2018-05-17T20:37:21.950Z,5.30
2018-05-17T20:39:48.847Z,4.77
2018-05-17T20:42:15.047Z,5.00
2018-05-17T20:44:41.202Z,5.30
2018-05-17T20:47:07.378Z,5.30
2018-05-17T20:49:34.519Z,4.73
2018-05-17T20:52:01.716Z,5.10
2018-05-17T20:54:28.153Z,5.63
2018-05-17T20:56:54.594Z,5.00
2018-05-17T20:59:21.160Z,5.80
2018-05-17T21:01:47.642Z,5.40
2018-05-17T21:04:14.117Z,5.30
2018-05-17T21:06:41.313Z,4.77
2018-05-17T21:09:07.761Z,5.60
2018-05-17T21:11:34.274Z,5.30
2018-05-17T21:14:01.546Z,5.33
2018-05-17T21:16:28.070Z,4.80
2018-05-17T21:18:54.755Z,5.33
2018-05-17T21:21:21.972Z,4.73
2018-05-17T21:23:48.398Z,5.70
2018-05-17T21:26:14.823Z,5.20
2018-05-17T21:28:41.941Z,5.53
2018-05-17T21:31:08.437Z,5.87
2018-05-17T21:33:34.855Z,6.33
2018-05-17T21:36:01.282Z,6.13
2018-05-17T21:38:27.711Z,5.80
2018-05-17T21:40:54.177Z,5.77
2018-05-17T21:43:20.621Z,5.53
2018-05-17T21:45:46.978Z,5.70
2018-05-17T21:48:14.257Z,5.30
2018-05-17T21:50:40.637Z,5.70
2018-05-17T21:53:07.030Z,6.20
2018-05-17T21:55:33.461Z,5.80
2018-05-17T21:57:59.911Z,5.93
2018-05-17T22:00:26.326Z,5.77
2018-05-17T22:02:52.801Z,5.43
2018-05-17T22:05:19.242Z,6.20
2018-05-17T22:07:45.645Z,5.20
2018-05-17T22:10:12.171Z,6.40
2018-05-17T22:12:38.370Z,5.50
2018-05-17T22:15:05.270Z,5.53
2018-05-17T22:17:31.503Z,6.00
2018-05-17T22:19:57.729Z,6.50
2018-05-17T22:22:23.907Z,5.60
2018-05-17T22:24:50.914Z,5.80
2018-05-17T22:27:17.099Z,6.60
2018-05-17T22:29:43.309Z,6.43
2018-05-17T22:32:10.239Z,5.70
2018-05-17T22:34:37.156Z,5.83
2018-05-17T22:37:03.415Z,5.93
2018-05-17T22:39:30.361Z,5.97
2018-05-17T22:41:57.391Z,7.50
2018-05-17T22:44:23.587Z,5.53
2018-05-17T22:46:49.858Z,6.03
2018-05-17T22:49:16.773Z,7.43
2018-05-17T22:51:42.980Z,6.10
2018-05-17T22:54:09.213Z,5.70
2018-05-17T22:56:47.612Z,6.00
2018-05-17T22:59:13.806Z,5.67
2018-05-17T23:01:40.729Z,6.50
2018-05-17T23:04:06.899Z,6.40
2018-05-17T23:06:33.141Z,6.67
2018-05-17T23:08:59.337Z,6.20
2018-05-17T23:11:26.235Z,6.60
2018-05-17T23:13:52.462Z,5.80
2018-05-17T23:16:18.653Z,6.23
2018-05-17T23:18:45.621Z,6.00
2018-05-17T23:21:11.848Z,7.07
2018-05-17T23:23:38.070Z,6.77
2018-05-17T23:26:04.316Z,8.00
2018-05-17T23:28:30.534Z,8.50
2018-05-17T23:30:56.725Z,5.57
2018-05-17T23:33:23.690Z,6.80
2018-05-17T23:35:49.913Z,6.20
2018-05-17T23:38:16.806Z,5.97
2018-05-17T23:43:43.114Z,6.17
2018-05-17T23:46:09.322Z,6.20
2018-05-17T23:48:36.296Z,5.73
2018-05-17T23:51:02.471Z,5.33
2018-05-17T23:53:28.652Z,5.73
2018-05-17T23:55:54.799Z,5.77
2018-05-17T23:58:21.018Z,5.13
